sensor_id;sensor_type;location;lat;lon;timestamp;P1;P2;P0
49343;PMS5003;35210;41.606;-87.602;2023-02-11T00:01:21;4.00;1.40;0.40
49343;PMS5003;35210;41.606;-87.602;2023-02-11T00:03:52;2.00;2.00;1.00
49343;PMS5003;35210;41.606;-87.602;2023-02-11T00:06:21;2.20;2.20;1.00
49343;PMS5003;35210;41.606;-87.602;2023-02-11T00:08:50;2.00;2.00;1.00
49343;PMS5003;35210;41.606;-87.602;2023-02-11T00:11:21;2.00;1.00;0.00
49343;PMS5003;35210;41.606;-87.602;2023-02-11T00:13:54;2.60;2.60;1.20
49343;PMS5003;35210;41.606;-87.602;2023-02-11T00:16:27;6.80;5.80;2.80
49343;PMS5003;35210;41.606;-87.602;2023-02-11T00:18:57;3.00;3.00;2.60
49343;PMS5003;35210;41.606;-87.602;2023-02-11T00:21:26;5.40;4.20;2.00
49343;PMS5003;35210;41.606;-87.602;2023-02-11T00:23:55;5.20;4.20;2.00
49343;PMS5003;35210;41.606;-87.602;2023-02-11T00:26:25;3.00;3.00;2.00
49343;PMS5003;35210;41.606;-87.602;2023-02-11T00:28:54;3.20;3.20;2.00
49343;PMS5003;35210;41.606;-87.602;2023-02-11T00:31:29;4.20;4.20;2.80
49343;PMS5003;35210;41.606;-87.602;2023-02-11T00:33:58;3.60;3.60;2.20
49343;PMS5003;35210;41.606;-87.602;2023-02-11T00:36:27;3.20;3.20;1.60
49343;PMS5003;35210;41.606;-87.602;2023-02-11T00:38:56;2.60;1.40;1.00
49343;PMS5003;35210;41.606;-87.602;2023-02-11T00:41:25;5.60;5.00;1.40
49343;PMS5003;35210;41.606;-87.602;2023-02-11T00:43:53;3.60;2.20;1.00
49343;PMS5003;35210;41.606;-87.602;2023-02-11T00:46:22;6.00;5.00;3.00
49343;PMS5003;35210;41.606;-87.602;2023-02-11T00:48:51;3.80;3.80;2.20
49343;PMS5003;35210;41.606;-87.602;2023-02-11T00:51:22;5.00;5.00;2.00
49343;PMS5003;35210;41.606;-87.602;2023-02-11T00:53:51;5.60;3.60;1.80
49343;PMS5003;35210;41.606;-87.602;2023-02-11T00:56:29;5.80;5.00;3.00
49343;PMS5003;35210;41.606;-87.602;2023-02-11T00:58:57;3.00;3.00;2.00
49343;PMS5003;35210;41.606;-87.602;2023-02-11T01:01:26;2.60;2.60;1.20
49343;PMS5003;35210;41.606;-87.602;2023-02-11T01:03:56;4.20;3.00;1.40
49343;PMS5003;35210;41.606;-87.602;2023-02-11T01:06:25;3.00;3.00;1.80
49343;PMS5003;35210;41.606;-87.602;2023-02-11T01:08:55;3.00;2.20;1.20
49343;PMS5003;35210;41.606;-87.602;2023-02-11T01:11:23;7.00;2.00;1.00
49343;PMS5003;35210;41.606;-87.602;2023-02-11T01:13:54;3.00;3.00;1.40
49343;PMS5003;35210;41.606;-87.602;2023-02-11T01:16:22;2.80;1.60;1.00
49343;PMS5003;35210;41.606;-87.602;2023-02-11T01:18:51;5.40;2.40;1.00
49343;PMS5003;35210;41.606;-87.602;2023-02-11T01:21:20;2.00;2.00;1.00
49343;PMS5003;35210;41.606;-87.602;2023-02-11T01:23:49;2.40;1.80;0.40
49343;PMS5003;35210;41.606;-87.602;2023-02-11T01:26:17;2.20;2.20;1.40
49343;PMS5003;35210;41.606;-87.602;2023-02-11T01:28:46;2.20;2.20;1.00
49343;PMS5003;35210;41.606;-87.602;2023-02-11T01:31:14;5.00;5.00;1.00
49343;PMS5003;35210;41.606;-87.602;2023-02-11T01:33:43;3.80;2.60;1.00
49343;PMS5003;35210;41.606;-87.602;2023-02-11T01:36:12;3.00;3.00;1.20
49343;PMS5003;35210;41.606;-87.602;2023-02-11T01:38:44;2.00;2.00;1.40
49343;PMS5003;35210;41.606;-87.602;2023-02-11T01:41:14;2.00;2.00;1.00
49343;PMS5003;35210;41.606;-87.602;2023-02-11T01:43:45;4.20;4.20;2.00
49343;PMS5003;35210;41.606;-87.602;2023-02-11T01:46:33;6.40;2.80;1.00
49343;PMS5003;35210;41.606;-87.602;2023-02-11T01:49:04;2.80;2.80;0.80
49343;PMS5003;35210;41.606;-87.602;2023-02-11T01:51:35;5.60;3.80;0.80
49343;PMS5003;35210;41.606;-87.602;2023-02-11T01:54:09;5.40;3.40;1.00
49343;PMS5003;35210;41.606;-87.602;2023-02-11T01:56:59;5.80;3.00;1.40
49343;PMS5003;35210;41.606;-87.602;2023-02-11T01:59:57;2.60;2.60;1.00
49343;PMS5003;35210;41.606;-87.602;2023-02-11T02:02:38;5.00;4.20;2.00
49343;PMS5003;35210;41.606;-87.602;2023-02-11T02:05:15;3.20;3.00;1.60
49343;PMS5003;35210;41.606;-87.602;2023-02-11T02:07:53;4.60;2.80;1.00
49343;PMS5003;35210;41.606;-87.602;2023-02-11T02:10:28;2.80;2.80;1.00
49343;PMS5003;35210;41.606;-87.602;2023-02-11T02:12:59;2.60;2.60;1.00
49343;PMS5003;35210;41.606;-87.602;2023-02-11T02:15:29;3.60;2.00;1.00
49343;PMS5003;35210;41.606;-87.602;2023-02-11T02:18:01;1.20;1.00;0.00
49343;PMS5003;35210;41.606;-87.602;2023-02-11T02:23:58;3.80;3.80;2.00
49343;PMS5003;35210;41.606;-87.602;2023-02-11T02:30:02;4.60;3.20;1.00
49343;PMS5003;35210;41.606;-87.602;2023-02-11T02:32:56;9.40;4.40;2.00
49343;PMS5003;35210;41.606;-87.602;2023-02-11T02:35:32;5.20;5.00;2.00
49343;PMS5003;35210;41.606;-87.602;2023-02-11T02:38:07;2.60;2.00;1.20
49343;PMS5003;35210;41.606;-87.602;2023-02-11T02:40:42;4.80;4.00;2.00
49343;PMS5003;35210;41.606;-87.602;2023-02-11T02:43:15;8.60;5.40;3.40
49343;PMS5003;35210;41.606;-87.602;2023-02-11T02:45:44;6.00;5.40;3.00
49343;PMS5003;35210;41.606;-87.602;2023-02-11T02:48:25;3.80;2.00;1.00
49343;PMS5003;35210;41.606;-87.602;2023-02-11T02:51:00;3.00;3.00;2.00
49343;PMS5003;35210;41.606;-87.602;2023-02-11T02:53:44;3.40;3.40;2.00
49343;PMS5003;35210;41.606;-87.602;2023-02-11T02:56:25;6.60;5.20;2.00
49343;PMS5003;35210;41.606;-87.602;2023-02-11T02:59:10;2.00;2.00;1.00
49343;PMS5003;35210;41.606;-87.602;2023-02-11T03:01:50;5.80;5.00;2.00
49343;PMS5003;35210;41.606;-87.602;2023-02-11T03:04:33;3.00;3.00;2.00
49343;PMS5003;35210;41.606;-87.602;2023-02-11T03:07:09;5.40;4.80;2.00
49343;PMS5003;35210;41.606;-87.602;2023-02-11T03:09:47;8.20;6.00;2.00
49343;PMS5003;35210;41.606;-87.602;2023-02-11T03:12:19;9.40;5.00;2.00
49343;PMS5003;35210;41.606;-87.602;2023-02-11T03:14:50;6.00;5.00;2.00
49343;PMS5003;35210;41.606;-87.602;2023-02-11T03:17:18;5.80;5.80;2.00
49343;PMS5003;35210;41.606;-87.602;2023-02-11T03:19:51;4.00;3.80;1.20
49343;PMS5003;35210;41.606;-87.602;2023-02-11T03:22:21;5.00;4.00;2.20
49343;PMS5003;35210;41.606;-87.602;2023-02-11T03:24:53;6.00;5.00;1.80
49343;PMS5003;35210;41.606;-87.602;2023-02-11T03:27:24;6.20;6.20;2.00
49343;PMS5003;35210;41.606;-87.602;2023-02-11T03:29:58;9.00;6.60;2.00
49343;PMS5003;35210;41.606;-87.602;2023-02-11T03:32:34;6.00;6.00;4.00
49343;PMS5003;35210;41.606;-87.602;2023-02-11T03:35:09;3.00;1.40;0.00
49343;PMS5003;35210;41.606;-87.602;2023-02-11T03:37:47;6.00;5.20;2.20
49343;PMS5003;35210;41.606;-87.602;2023-02-11T03:40:24;8.60;6.00;3.20
49343;PMS5003;35210;41.606;-87.602;2023-02-11T03:42:57;5.80;5.40;3.40
49343;PMS5003;35210;41.606;-87.602;2023-02-11T03:45:29;2.00;2.00;1.00
49343;PMS5003;35210;41.606;-87.602;2023-02-11T03:47:59;5.00;4.40;2.80
49343;PMS5003;35210;41.606;-87.602;2023-02-11T03:50:32;5.60;5.60;3.00
49343;PMS5003;35210;41.606;-87.602;2023-02-11T03:53:03;8.20;6.80;2.60
49343;PMS5003;35210;41.606;-87.602;2023-02-11T03:55:32;7.00;4.40;2.00
49343;PMS5003;35210;41.606;-87.602;2023-02-11T03:58:06;8.20;6.40;4.00
49343;PMS5003;35210;41.606;-87.602;2023-02-11T04:00:35;6.00;4.60;2.00
49343;PMS5003;35210;41.606;-87.602;2023-02-11T04:03:05;5.40;5.00;1.00
49343;PMS5003;35210;41.606;-87.602;2023-02-11T04:05:36;9.40;6.00;3.20
49343;PMS5003;35210;41.606;-87.602;2023-02-11T04:08:06;9.80;7.60;3.80
49343;PMS5003;35210;41.606;-87.602;2023-02-11T04:10:34;4.60;4.60;3.00
49343;PMS5003;35210;41.606;-87.602;2023-02-11T04:13:02;5.00;5.00;3.20
49343;PMS5003;35210;41.606;-87.602;2023-02-11T04:15:31;8.20;6.40;4.20
49343;PMS5003;35210;41.606;-87.602;2023-02-11T04:18:01;5.20;5.20;3.20
49343;PMS5003;35210;41.606;-87.602;2023-02-11T04:20:29;9.00;6.00;2.40
49343;PMS5003;35210;41.606;-87.602;2023-02-11T04:22:59;6.00;6.00;2.80
49343;PMS5003;35210;41.606;-87.602;2023-02-11T04:25:27;5.60;5.00;3.40
49343;PMS5003;35210;41.606;-87.602;2023-02-11T04:27:55;10.20;7.20;2.00
49343;PMS5003;35210;41.606;-87.602;2023-02-11T04:30:24;7.60;7.60;3.20
49343;PMS5003;35210;41.606;-87.602;2023-02-11T04:32:52;4.20;4.20;1.40
49343;PMS5003;35210;41.606;-87.602;2023-02-11T04:35:20;11.80;8.80;4.00
49343;PMS5003;35210;41.606;-87.602;2023-02-11T04:37:49;5.60;5.60;4.00
49343;PMS5003;35210;41.606;-87.602;2023-02-11T04:40:20;8.40;7.20;4.20
49343;PMS5003;35210;41.606;-87.602;2023-02-11T04:42:48;5.20;4.80;2.00
49343;PMS5003;35210;41.606;-87.602;2023-02-11T04:45:17;5.00;5.00;2.80
49343;PMS5003;35210;41.606;-87.602;2023-02-11T04:47:46;5.00;3.80;1.40
49343;PMS5003;35210;41.606;-87.602;2023-02-11T04:50:14;5.00;5.00;2.00
49343;PMS5003;35210;41.606;-87.602;2023-02-11T04:52:42;9.00;5.00;2.00
49343;PMS5003;35210;41.606;-87.602;2023-02-11T04:55:10;6.00;4.40;2.00
49343;PMS5003;35210;41.606;-87.602;2023-02-11T04:57:41;4.20;3.60;2.00
49343;PMS5003;35210;41.606;-87.602;2023-02-11T05:00:10;1.40;1.40;1.00
49343;PMS5003;35210;41.606;-87.602;2023-02-11T05:02:39;4.40;4.00;1.00
49343;PMS5003;35210;41.606;-87.602;2023-02-11T05:05:07;7.20;7.20;4.00
49343;PMS5003;35210;41.606;-87.602;2023-02-11T05:07:35;5.40;5.00;2.80
49343;PMS5003;35210;41.606;-87.602;2023-02-11T05:10:04;4.80;3.60;1.80
49343;PMS5003;35210;41.606;-87.602;2023-02-11T05:12:32;4.80;4.80;2.00
49343;PMS5003;35210;41.606;-87.602;2023-02-11T05:15:03;4.60;4.00;2.00
49343;PMS5003;35210;41.606;-87.602;2023-02-11T05:17:31;5.20;5.20;2.00
49343;PMS5003;35210;41.606;-87.602;2023-02-11T05:20:00;5.00;4.80;2.00
49343;PMS5003;35210;41.606;-87.602;2023-02-11T05:22:28;5.00;5.00;1.80
49343;PMS5003;35210;41.606;-87.602;2023-02-11T05:24:57;4.60;4.60;1.80
49343;PMS5003;35210;41.606;-87.602;2023-02-11T05:27:25;9.00;4.60;2.80
49343;PMS5003;35210;41.606;-87.602;2023-02-11T05:29:54;4.80;4.80;2.00
49343;PMS5003;35210;41.606;-87.602;2023-02-11T05:32:24;5.80;4.20;2.40
49343;PMS5003;35210;41.606;-87.602;2023-02-11T05:34:53;6.00;5.40;4.00
49343;PMS5003;35210;41.606;-87.602;2023-02-11T05:37:22;6.40;4.80;2.00
49343;PMS5003;35210;41.606;-87.602;2023-02-11T05:39:50;4.60;4.60;2.00
49343;PMS5003;35210;41.606;-87.602;2023-02-11T05:42:18;4.80;4.40;4.00
49343;PMS5003;35210;41.606;-87.602;2023-02-11T05:44:47;7.60;7.60;4.00
49343;PMS5003;35210;41.606;-87.602;2023-02-11T05:47:16;0.80;0.80;0.00
49343;PMS5003;35210;41.606;-87.602;2023-02-11T05:49:46;4.20;4.20;2.00
49343;PMS5003;35210;41.606;-87.602;2023-02-11T05:52:14;6.80;5.60;3.20
49343;PMS5003;35210;41.606;-87.602;2023-02-11T05:54:43;9.20;7.20;4.00
49343;PMS5003;35210;41.606;-87.602;2023-02-11T05:57:11;6.00;5.00;2.00
49343;PMS5003;35210;41.606;-87.602;2023-02-11T05:59:40;4.80;4.80;2.00
49343;PMS5003;35210;41.606;-87.602;2023-02-11T06:02:09;7.60;6.00;4.00
49343;PMS5003;35210;41.606;-87.602;2023-02-11T06:04:38;4.00;4.00;2.40
49343;PMS5003;35210;41.606;-87.602;2023-02-11T06:07:08;7.20;5.40;2.00
49343;PMS5003;35210;41.606;-87.602;2023-02-11T06:09:38;5.60;5.20;2.00
49343;PMS5003;35210;41.606;-87.602;2023-02-11T06:12:06;10.00;6.80;3.20
49343;PMS5003;35210;41.606;-87.602;2023-02-11T06:14:34;6.40;6.00;4.00
49343;PMS5003;35210;41.606;-87.602;2023-02-11T06:17:03;5.80;4.40;2.00
49343;PMS5003;35210;41.606;-87.602;2023-02-11T06:19:31;5.00;5.00;2.40
49343;PMS5003;35210;41.606;-87.602;2023-02-11T06:22:00;9.60;7.60;4.20
49343;PMS5003;35210;41.606;-87.602;2023-02-11T06:24:30;8.20;7.60;5.40
49343;PMS5003;35210;41.606;-87.602;2023-02-11T06:26:59;11.60;9.00;5.80
49343;PMS5003;35210;41.606;-87.602;2023-02-11T06:29:27;11.60;11.60;8.80
49343;PMS5003;35210;41.606;-87.602;2023-02-11T06:31:55;15.20;13.20;9.00
49343;PMS5003;35210;41.606;-87.602;2023-02-11T06:34:23;15.20;11.20;8.60
49343;PMS5003;35210;41.606;-87.602;2023-02-11T06:36:51;15.60;14.60;9.80
49343;PMS5003;35210;41.606;-87.602;2023-02-11T06:39:19;15.40;13.20;10.40
49343;PMS5003;35210;41.606;-87.602;2023-02-11T06:41:49;19.00;18.80;15.00
49343;PMS5003;35210;41.606;-87.602;2023-02-11T06:44:17;19.60;19.60;14.20
49343;PMS5003;35210;41.606;-87.602;2023-02-11T06:46:45;30.40;30.00;21.60
49343;PMS5003;35210;41.606;-87.602;2023-02-11T06:49:14;27.20;24.80;19.80
49343;PMS5003;35210;41.606;-87.602;2023-02-11T06:51:42;29.20;26.40;19.80
49343;PMS5003;35210;41.606;-87.602;2023-02-11T06:54:10;29.40;28.80;21.80
49343;PMS5003;35210;41.606;-87.602;2023-02-11T06:56:39;27.00;25.00;19.00
49343;PMS5003;35210;41.606;-87.602;2023-02-11T06:59:09;26.60;24.60;18.60
49343;PMS5003;35210;41.606;-87.602;2023-02-11T07:01:42;26.00;25.40;18.80
49343;PMS5003;35210;41.606;-87.602;2023-02-11T07:04:10;24.60;21.60;15.40
49343;PMS5003;35210;41.606;-87.602;2023-02-11T07:06:39;20.60;14.80;11.80
49343;PMS5003;35210;41.606;-87.602;2023-02-11T07:09:08;32.00;25.80;15.40
49343;PMS5003;35210;41.606;-87.602;2023-02-11T07:11:36;17.60;13.40;8.60
49343;PMS5003;35210;41.606;-87.602;2023-02-11T07:14:04;16.00;14.00;8.60
49343;PMS5003;35210;41.606;-87.602;2023-02-11T07:16:37;15.60;11.80;7.40
49343;PMS5003;35210;41.606;-87.602;2023-02-11T07:19:05;11.60;11.60;7.60
49343;PMS5003;35210;41.606;-87.602;2023-02-11T07:21:34;11.20;8.80;4.00
49343;PMS5003;35210;41.606;-87.602;2023-02-11T07:24:05;9.80;8.20;5.00
49343;PMS5003;35210;41.606;-87.602;2023-02-11T07:26:34;7.80;7.20;4.00
49343;PMS5003;35210;41.606;-87.602;2023-02-11T07:29:03;7.20;7.20;4.20
49343;PMS5003;35210;41.606;-87.602;2023-02-11T07:31:31;10.00;7.60;4.20
49343;PMS5003;35210;41.606;-87.602;2023-02-11T07:34:02;8.00;8.00;4.40
49343;PMS5003;35210;41.606;-87.602;2023-02-11T07:36:30;17.80;9.40;5.00
49343;PMS5003;35210;41.606;-87.602;2023-02-11T07:38:59;10.80;8.20;4.80
49343;PMS5003;35210;41.606;-87.602;2023-02-11T07:41:27;7.60;7.60;5.00
49343;PMS5003;35210;41.606;-87.602;2023-02-11T07:43:56;11.00;8.60;5.00
49343;PMS5003;35210;41.606;-87.602;2023-02-11T07:46:25;11.60;8.00;5.00
49343;PMS5003;35210;41.606;-87.602;2023-02-11T07:48:54;10.20;10.20;5.00
49343;PMS5003;35210;41.606;-87.602;2023-02-11T07:51:24;9.80;9.00;5.00
49343;PMS5003;35210;41.606;-87.602;2023-02-11T07:53:53;10.20;10.20;6.20
49343;PMS5003;35210;41.606;-87.602;2023-02-11T07:56:22;11.40;9.20;5.00
49343;PMS5003;35210;41.606;-87.602;2023-02-11T07:58:50;9.00;9.00;6.80
49343;PMS5003;35210;41.606;-87.602;2023-02-11T08:01:20;9.80;9.80;5.00
49343;PMS5003;35210;41.606;-87.602;2023-02-11T08:03:51;8.80;7.60;4.00
49343;PMS5003;35210;41.606;-87.602;2023-02-11T08:06:20;18.00;14.40;5.00
49343;PMS5003;35210;41.606;-87.602;2023-02-11T08:08:51;13.40;9.80;5.00
49343;PMS5003;35210;41.606;-87.602;2023-02-11T08:11:21;13.60;8.40;5.00
49343;PMS5003;35210;41.606;-87.602;2023-02-11T08:13:51;14.20;13.00;7.00
49343;PMS5003;35210;41.606;-87.602;2023-02-11T08:16:21;12.00;12.00;7.00
49343;PMS5003;35210;41.606;-87.602;2023-02-11T08:18:51;8.60;7.20;3.60
49343;PMS5003;35210;41.606;-87.602;2023-02-11T08:21:22;10.20;9.00;5.00
49343;PMS5003;35210;41.606;-87.602;2023-02-11T08:23:53;11.80;7.40;5.00
49343;PMS5003;35210;41.606;-87.602;2023-02-11T08:26:22;9.60;8.80;4.40
49343;PMS5003;35210;41.606;-87.602;2023-02-11T08:28:53;13.00;9.40;7.00
49343;PMS5003;35210;41.606;-87.602;2023-02-11T08:31:23;21.00;17.80;14.60
49343;PMS5003;35210;41.606;-87.602;2023-02-11T08:33:53;24.40;22.60;16.20
49343;PMS5003;35210;41.606;-87.602;2023-02-11T08:36:23;23.60;23.60;15.60
49343;PMS5003;35210;41.606;-87.602;2023-02-11T08:38:56;21.60;21.60;16.00
49343;PMS5003;35210;41.606;-87.602;2023-02-11T08:41:26;27.00;24.80;18.80
49343;PMS5003;35210;41.606;-87.602;2023-02-11T08:43:55;23.00;23.00;17.60
49343;PMS5003;35210;41.606;-87.602;2023-02-11T08:46:23;25.60;24.40;19.00
49343;PMS5003;35210;41.606;-87.602;2023-02-11T08:48:52;29.60;27.00;21.00
49343;PMS5003;35210;41.606;-87.602;2023-02-11T08:51:21;28.20;26.60;18.80
49343;PMS5003;35210;41.606;-87.602;2023-02-11T08:53:52;18.80;17.40;12.40
49343;PMS5003;35210;41.606;-87.602;2023-02-11T08:56:23;25.00;18.00;12.00
49343;PMS5003;35210;41.606;-87.602;2023-02-11T08:58:51;24.20;21.20;14.00
49343;PMS5003;35210;41.606;-87.602;2023-02-11T09:01:21;23.80;19.20;14.80
49343;PMS5003;35210;41.606;-87.602;2023-02-11T09:03:52;24.20;21.00;15.00
49343;PMS5003;35210;41.606;-87.602;2023-02-11T09:06:21;22.80;22.80;19.20
49343;PMS5003;35210;41.606;-87.602;2023-02-11T09:08:51;30.80;27.00;21.40
49343;PMS5003;35210;41.606;-87.602;2023-02-11T09:11:24;35.80;32.80;23.00
49343;PMS5003;35210;41.606;-87.602;2023-02-11T09:13:55;27.20;27.20;19.20
49343;PMS5003;35210;41.606;-87.602;2023-02-11T09:16:23;26.60;22.60;17.80
49343;PMS5003;35210;41.606;-87.602;2023-02-11T09:18:54;20.20;19.60;14.00
49343;PMS5003;35210;41.606;-87.602;2023-02-11T09:21:22;9.40;8.40;5.40
49343;PMS5003;35210;41.606;-87.602;2023-02-11T09:23:51;9.40;8.60;5.00
49343;PMS5003;35210;41.606;-87.602;2023-02-11T09:26:20;11.60;10.00;4.40
49343;PMS5003;35210;41.606;-87.602;2023-02-11T09:28:52;11.20;7.80;4.00
49343;PMS5003;35210;41.606;-87.602;2023-02-11T09:31:21;11.00;9.60;4.80
49343;PMS5003;35210;41.606;-87.602;2023-02-11T09:33:51;11.00;8.00;4.00
49343;PMS5003;35210;41.606;-87.602;2023-02-11T09:36:22;9.60;5.80;2.80
49343;PMS5003;35210;41.606;-87.602;2023-02-11T09:38:51;7.00;4.60;4.00
49343;PMS5003;35210;41.606;-87.602;2023-02-11T09:41:34;8.00;8.00;4.00
49343;PMS5003;35210;41.606;-87.602;2023-02-11T09:44:16;5.40;5.00;4.40
49343;PMS5003;35210;41.606;-87.602;2023-02-11T09:46:49;7.20;6.60;4.00
49343;PMS5003;35210;41.606;-87.602;2023-02-11T09:49:22;7.80;5.00;4.00
49343;PMS5003;35210;41.606;-87.602;2023-02-11T09:51:56;6.40;5.00;2.40
49343;PMS5003;35210;41.606;-87.602;2023-02-11T09:54:33;7.00;7.00;4.00
49343;PMS5003;35210;41.606;-87.602;2023-02-11T09:57:11;4.60;4.00;3.60
49343;PMS5003;35210;41.606;-87.602;2023-02-11T09:59:40;7.60;7.00;4.00
49343;PMS5003;35210;41.606;-87.602;2023-02-11T10:02:10;7.80;7.40;3.60
49343;PMS5003;35210;41.606;-87.602;2023-02-11T10:04:49;10.00;5.80;4.00
49343;PMS5003;35210;41.606;-87.602;2023-02-11T10:07:31;9.20;8.00;5.00
49343;PMS5003;35210;41.606;-87.602;2023-02-11T10:10:10;9.60;7.40;2.80
49343;PMS5003;35210;41.606;-87.602;2023-02-11T10:12:57;14.40;7.80;4.60
49343;PMS5003;35210;41.606;-87.602;2023-02-11T10:15:40;16.00;13.40;8.80
49343;PMS5003;35210;41.606;-87.602;2023-02-11T10:18:23;14.40;11.00;8.40
49343;PMS5003;35210;41.606;-87.602;2023-02-11T10:21:11;18.60;17.60;13.40
49343;PMS5003;35210;41.606;-87.602;2023-02-11T10:23:47;20.20;17.80;12.40
49343;PMS5003;35210;41.606;-87.602;2023-02-11T10:26:18;23.20;22.60;16.20
49343;PMS5003;35210;41.606;-87.602;2023-02-11T10:28:48;23.20;20.80;16.40
49343;PMS5003;35210;41.606;-87.602;2023-02-11T10:31:20;16.00;15.60;10.80
49343;PMS5003;35210;41.606;-87.602;2023-02-11T10:33:52;13.80;11.00;7.00
49343;PMS5003;35210;41.606;-87.602;2023-02-11T10:36:27;14.00;11.00;5.00
49343;PMS5003;35210;41.606;-87.602;2023-02-11T10:38:57;8.00;6.20;4.00
49343;PMS5003;35210;41.606;-87.602;2023-02-11T10:41:27;7.20;5.00;2.40
49343;PMS5003;35210;41.606;-87.602;2023-02-11T10:44:01;6.60;5.00;2.40
49343;PMS5003;35210;41.606;-87.602;2023-02-11T10:46:32;10.60;8.00;3.60
49343;PMS5003;35210;41.606;-87.602;2023-02-11T10:49:04;10.60;7.40;4.60
49343;PMS5003;35210;41.606;-87.602;2023-02-11T10:51:32;7.20;7.00;4.00
49343;PMS5003;35210;41.606;-87.602;2023-02-11T10:54:13;7.00;7.00;2.00
49343;PMS5003;35210;41.606;-87.602;2023-02-11T10:56:46;4.60;4.60;2.00
49343;PMS5003;35210;41.606;-87.602;2023-02-11T10:59:20;7.80;7.80;4.40
49343;PMS5003;35210;41.606;-87.602;2023-02-11T11:01:55;10.40;10.40;5.40
49343;PMS5003;35210;41.606;-87.602;2023-02-11T11:04:33;11.00;8.00;4.60
49343;PMS5003;35210;41.606;-87.602;2023-02-11T11:07:13;9.60;7.00;4.00
49343;PMS5003;35210;41.606;-87.602;2023-02-11T11:09:47;11.80;8.80;6.20
49343;PMS5003;35210;41.606;-87.602;2023-02-11T11:12:27;14.60;9.40;6.80
49343;PMS5003;35210;41.606;-87.602;2023-02-11T11:15:12;9.40;9.40;5.80
49343;PMS5003;35210;41.606;-87.602;2023-02-11T11:17:44;18.60;18.60;13.60
49343;PMS5003;35210;41.606;-87.602;2023-02-11T11:20:13;21.80;21.00;16.60
49343;PMS5003;35210;41.606;-87.602;2023-02-11T11:22:47;23.60;20.80;17.20
49343;PMS5003;35210;41.606;-87.602;2023-02-11T11:25:21;18.80;18.80;13.60
49343;PMS5003;35210;41.606;-87.602;2023-02-11T11:27:52;28.00;26.00;18.60
49343;PMS5003;35210;41.606;-87.602;2023-02-11T11:30:25;22.40;22.40;19.40
49343;PMS5003;35210;41.606;-87.602;2023-02-11T11:32:58;28.40;28.40;21.40
49343;PMS5003;35210;41.606;-87.602;2023-02-11T11:35:28;31.80;28.00;21.00
49343;PMS5003;35210;41.606;-87.602;2023-02-11T11:37:59;26.80;24.40;17.00
49343;PMS5003;35210;41.606;-87.602;2023-02-11T11:40:29;25.00;23.80;18.40
49343;PMS5003;35210;41.606;-87.602;2023-02-11T11:43:03;35.20;29.20;21.80
49343;PMS5003;35210;41.606;-87.602;2023-02-11T11:45:42;32.80;29.00;19.20
49343;PMS5003;35210;41.606;-87.602;2023-02-11T11:48:22;34.40;33.20;24.20
49343;PMS5003;35210;41.606;-87.602;2023-02-11T11:50:54;36.80;30.80;25.00
49343;PMS5003;35210;41.606;-87.602;2023-02-11T11:53:28;33.00;32.60;22.40
49343;PMS5003;35210;41.606;-87.602;2023-02-11T11:56:02;39.50;39.25;30.25
49343;PMS5003;35210;41.606;-87.602;2023-02-11T11:58:32;39.50;35.25;28.50
49343;PMS5003;35210;41.606;-87.602;2023-02-11T12:01:05;21.00;19.00;13.00
49343;PMS5003;35210;41.606;-87.602;2023-02-11T12:06:52;13.20;12.20;8.00
49343;PMS5003;35210;41.606;-87.602;2023-02-11T12:09:34;17.00;15.60;10.80
49343;PMS5003;35210;41.606;-87.602;2023-02-11T12:12:15;13.00;13.00;7.00
49343;PMS5003;35210;41.606;-87.602;2023-02-11T12:14:58;14.00;13.00;7.00
49343;PMS5003;35210;41.606;-87.602;2023-02-11T12:17:41;8.80;8.80;5.00
49343;PMS5003;35210;41.606;-87.602;2023-02-11T12:20:25;9.40;8.40;4.80
49343;PMS5003;35210;41.606;-87.602;2023-02-11T12:23:02;13.60;9.20;5.20
49343;PMS5003;35210;41.606;-87.602;2023-02-11T12:25:53;15.40;10.20;5.20
49343;PMS5003;35210;41.606;-87.602;2023-02-11T12:28:30;8.80;7.80;5.00
49343;PMS5003;35210;41.606;-87.602;2023-02-11T12:31:10;10.40;10.00;5.00
49343;PMS5003;35210;41.606;-87.602;2023-02-11T12:33:54;13.20;9.60;7.00
49343;PMS5003;35210;41.606;-87.602;2023-02-11T12:36:43;10.20;7.00;4.00
49343;PMS5003;35210;41.606;-87.602;2023-02-11T12:39:25;14.40;10.20;5.40
49343;PMS5003;35210;41.606;-87.602;2023-02-11T12:42:16;12.20;10.80;5.00
49343;PMS5003;35210;41.606;-87.602;2023-02-11T12:45:33;12.60;11.00;4.80
49343;PMS5003;35210;41.606;-87.602;2023-02-11T12:48:21;11.00;10.00;6.20
49343;PMS5003;35210;41.606;-87.602;2023-02-11T12:51:06;10.40;10.20;7.00
49343;PMS5003;35210;41.606;-87.602;2023-02-11T12:53:48;10.20;8.00;5.00
49343;PMS5003;35210;41.606;-87.602;2023-02-11T12:56:31;12.60;9.60;5.00
49343;PMS5003;35210;41.606;-87.602;2023-02-11T12:59:04;11.00;9.60;7.00
49343;PMS5003;35210;41.606;-87.602;2023-02-11T13:01:39;14.00;12.40;8.40
49343;PMS5003;35210;41.606;-87.602;2023-02-11T13:04:12;13.80;13.00;7.00
49343;PMS5003;35210;41.606;-87.602;2023-02-11T13:06:50;11.40;10.00;7.00
49343;PMS5003;35210;41.606;-87.602;2023-02-11T13:09:24;12.80;10.60;6.60
49343;PMS5003;35210;41.606;-87.602;2023-02-11T13:11:57;14.00;14.00;10.00
49343;PMS5003;35210;41.606;-87.602;2023-02-11T13:14:52;17.60;15.80;7.80
49343;PMS5003;35210;41.606;-87.602;2023-02-11T13:17:27;15.00;14.20;8.20
49343;PMS5003;35210;41.606;-87.602;2023-02-11T13:20:02;15.20;15.20;9.20
49343;PMS5003;35210;41.606;-87.602;2023-02-11T13:22:45;12.80;9.20;5.40
49343;PMS5003;35210;41.606;-87.602;2023-02-11T13:25:23;24.60;16.40;11.00
49343;PMS5003;35210;41.606;-87.602;2023-02-11T13:28:00;18.00;15.80;11.00
49343;PMS5003;35210;41.606;-87.602;2023-02-11T13:30:38;18.00;16.80;11.00
49343;PMS5003;35210;41.606;-87.602;2023-02-11T13:33:19;16.20;14.60;10.20
49343;PMS5003;35210;41.606;-87.602;2023-02-11T13:36:21;16.80;15.00;9.60
49343;PMS5003;35210;41.606;-87.602;2023-02-11T13:38:55;17.40;12.20;10.60
49343;PMS5003;35210;41.606;-87.602;2023-02-11T13:41:27;14.00;13.60;10.00
49343;PMS5003;35210;41.606;-87.602;2023-02-11T13:43:59;9.20;8.40;8.00
49343;PMS5003;35210;41.606;-87.602;2023-02-11T13:49:21;19.20;17.00;11.00
49343;PMS5003;35210;41.606;-87.602;2023-02-11T13:51:53;21.00;17.80;11.20
49343;PMS5003;35210;41.606;-87.602;2023-02-11T13:54:27;22.00;17.00;10.00
49343;PMS5003;35210;41.606;-87.602;2023-02-11T13:59:56;20.20;18.40;10.20
49343;PMS5003;35210;41.606;-87.602;2023-02-11T14:02:28;19.20;17.00;12.00
49343;PMS5003;35210;41.606;-87.602;2023-02-11T14:05:25;23.20;20.20;13.00
49343;PMS5003;35210;41.606;-87.602;2023-02-11T14:08:16;24.60;22.00;14.00
49343;PMS5003;35210;41.606;-87.602;2023-02-11T14:14:14;29.80;23.00;14.60
49343;PMS5003;35210;41.606;-87.602;2023-02-11T14:19:49;26.40;25.60;15.80
49343;PMS5003;35210;41.606;-87.602;2023-02-11T14:22:19;29.60;27.40;15.40
49343;PMS5003;35210;41.606;-87.602;2023-02-11T14:24:51;31.80;29.20;18.20
49343;PMS5003;35210;41.606;-87.602;2023-02-11T14:27:28;27.20;20.80;13.20
49343;PMS5003;35210;41.606;-87.602;2023-02-11T14:30:08;36.00;24.80;15.40
49343;PMS5003;35210;41.606;-87.602;2023-02-11T14:36:01;13.60;13.20;8.00
49343;PMS5003;35210;41.606;-87.602;2023-02-11T14:38:39;20.00;16.20;9.20
49343;PMS5003;35210;41.606;-87.602;2023-02-11T14:41:19;18.40;16.00;9.80
49343;PMS5003;35210;41.606;-87.602;2023-02-11T14:43:54;21.00;18.20;10.40